Fowlston, Georgia
Current Conditions -  °F | °C
As of 2:55 PM on Tuesday 27 Jan 2015 (Local Time) from K2J9 Reporting Station
Clear Clear  
Wind Chill: 66°   Ceiling: Unl
Heat Index: 66°   Visibility: 10mi
Dew Point: 36°   Wind: 8mph
Humidity: 32%   Direction: 320°NW
Pressure: 29.97"   Gusts: 17mph
Location:  30.79°N, 84.55°W
Report Text: K2J9 271855Z AUTO 32007G15KT 270V340 10SM CLR 19/02 A2997 RMK AO1 P0033
Loading
Personal Weather Stations






























Interactive Weather Map New forecast layout! Learn more

10-Day Weather Forecast

Advertisements
Track Severe Weather on mobile